Flight Track Log - Related Links

Times and Time Zones

All times are in EDT time to prevent confusion due to time zone crossing. See the CPZ5750 flight status page for this flight to view local times or setup timezone preferences in your user account.

Time Position Orientation Groundspeed Altitude Reporting Facility
EDT Latitude Longitude Course Direction KTS MPH feet Rate Location/Type
Thu 05:19:59 PM 44.8667 -93.1500 70° East 175 201 2,500  Level Minneapolis TRACON
Thu 05:20:30 PM 44.8722 -93.1139 78° East 185 213 2,900 1,630 Climbing Minneapolis Center
Thu 05:21:31 PM 44.8850 -93.0147 80° East 280 322 5,000 2,683 Climbing Minneapolis Center
Thu 05:22:00 PM 45.0420 -92.6115 68° East  Level FlightAware Approximate
Thu 05:22:33 PM 44.9367 -92.9267 50° Northeast 291 335 8,400  Level Minneapolis Center
Thu 05:23:00 PM 45.0852 -92.4594 70° East  Level FlightAware Approximate
Thu 05:23:34 PM 45.0028 -92.8122 51° Northeast 314 361 11,000  Level Minneapolis Center
Thu 05:24:00 PM 45.1199 -92.3038 70° East  Level FlightAware Approximate
Thu 05:24:35 PM 45.0700 -92.6953 51° Northeast 381 438 12,800  Level Minneapolis Center
Thu 05:25:00 PM 45.1589 -92.1479 70° East  Level FlightAware Approximate
Thu 05:25:37 PM 45.1389 -92.5761 51° Northeast 393 452 15,100  Level Minneapolis Center
Thu 05:26:38 PM 45.2092 -92.4531 51° Northeast 404 465 17,300 2,115 Climbing Minneapolis Center
Thu 05:27:39 PM 45.2789 -92.3294 51° Northeast 402 463 19,400 1,854 Climbing Minneapolis Center
Thu 05:28:41 PM 45.3217 -92.1761 68° East 417 480 21,100 1,561 Climbing Minneapolis Center
Thu 05:29:42 PM 45.3417 -92.0058 80° East 434 499 22,600 1,854 Climbing Minneapolis Center
Thu 05:30:44 PM 45.3656 -91.8358 79° East 438 504 24,900 1,902 Climbing Minneapolis Center
Thu 05:31:45 PM 45.3875 -91.6692 79° East 432 497 26,500 1,377 Climbing Minneapolis Center
Thu 05:32:46 PM 45.4089 -91.4986 80° East 437 503 27,700 1,180 Climbing Minneapolis Center
Thu 05:33:47 PM 45.4367 -91.2908 79° East 446 513 28,900 1,073 Climbing Minneapolis Center
Thu 05:34:49 PM 45.4583 -91.1244 79° East 451 519 29,900 878 Climbing Minneapolis Center
Thu 05:35:50 PM 45.4689 -90.9469 85° East 452 520 30,700 689 Climbing Minneapolis Center
Thu 05:36:51 PM 45.4467 -90.7644 100° East 466 536 31,300 732 Climbing Minneapolis Center
Thu 05:37:53 PM 45.4258 -90.5803 99° East 471 542 32,200 780 Climbing Minneapolis Center
Thu 05:38:54 PM 45.4025 -90.3608 99° East 470 541 32,900 836 Climbing Minneapolis Center
Thu 05:39:55 PM 45.3808 -90.1789 100° East 469 540 33,900 780 Climbing Minneapolis Center
Thu 05:40:57 PM 45.3617 -89.9994 99° East 464 534 34,500 683 Climbing Minneapolis Center
Thu 05:41:58 PM 45.3403 -89.8197 100° East 464 534 35,300 738 Climbing Minneapolis Center
Thu 05:42:59 PM 45.3194 -89.6419 99° East 462 532 36,000 683 Climbing Minneapolis Center
Thu 05:44:01 PM 45.2981 -89.4642 100° East 459 528 36,700 488 Climbing Minneapolis Center
Thu 05:45:02 PM 45.2772 -89.2883 99° East 457 526 37,000 148 Climbing Minneapolis Center
Thu 05:46:03 PM 45.2503 -89.0717 100° East 463 533 37,000  Level Minneapolis Center
Thu 05:47:05 PM 45.2267 -88.8844 100° East 476 548 37,000  Level Minneapolis Center
Thu 05:48:06 PM 45.2031 -88.6947 100° East 488 562 37,000  Level Minneapolis Center
Thu 05:49:07 PM 45.1789 -88.5044 100° East 488 562 37,000  Level Minneapolis Center
Thu 05:50:09 PM 45.1536 -88.3136 101° East 494 568 37,000  Level Minneapolis Center
Thu 05:51:10 PM 45.1294 -88.1233 100° East 492 566 37,000  Level Minneapolis Center
Thu 05:52:11 PM 45.1036 -87.9333 101° East 494 568 37,000  Level Minneapolis Center
Thu 05:53:13 PM 45.0778 -87.7422 101° East 497 572 37,000  Level Minneapolis Center
Thu 05:54:14 PM 45.0594 -87.5486 98° East 497 572 37,000  Level Minneapolis Center
Thu 05:55:15 PM 45.0386 -87.3553 99° East 499 574 37,000  Level Minneapolis Center
Thu 05:56:17 PM 45.0150 -87.1228 98° East 500 575 37,000  Level Minneapolis Center
Thu 05:57:18 PM 44.9944 -86.9311 99° East 496 571 37,000  Level Minneapolis Center
Thu 05:58:19 PM 44.9750 -86.7547 99° East 485 558 37,000  Level Minneapolis Center
Thu 05:59:20 PM 44.9533 -86.5633 99° East 490 564 37,000  Level Minneapolis Center
Thu 06:00:24 PM 44.9319 -86.3722 99° East 492 566 37,000  Level Minneapolis Center
Thu 06:01:26 PM 44.9108 -86.1811 99° East 493 567 37,000  Level Minneapolis Center
Thu 06:02:27 PM 44.8925 -86.0278 100° East 495 570 37,000  Level Minneapolis Center
Thu 06:03:28 PM 44.8600 -85.7575 100° East 499 574 37,000  Level Minneapolis Center
Thu 06:04:29 PM 44.8406 -85.5797 99° East 498 573 37,000 -590 Level Minneapolis Center
Thu 06:05:30 PM 44.8172 -85.3883 100° East 497 572 35,800 -976 Descending Minneapolis Center
Thu 06:06:32 PM 44.7939 -85.2022 100° East 486 559 35,000 -390 Descending Minneapolis Center
Thu 06:07:33 PM 44.7711 -85.0147 100° East 487 560 35,000  Level Minneapolis Center
Thu 06:08:34 PM 44.7417 -84.7858 100° East 494 568 35,000  Level Minneapolis Center
Thu 06:09:35 PM 44.7167 -84.5928 100° East 502 578 35,000  Level Minneapolis Center
Thu 06:10:36 PM 44.6911 -84.3967 100° East 508 585 35,000  Level Minneapolis Center
Thu 06:11:37 PM 44.6658 -84.2019 100° East 509 586 35,000  Level Minneapolis Center
Thu 06:12:39 PM 44.6381 -84.0078 101° East 508 585 35,000  Level Minneapolis Center
Thu 06:13:40 PM 44.6122 -83.8139 101° East 508 585 35,000  Level Minneapolis Center
Thu 06:14:41 PM 44.5875 -83.6236 100° East 502 578 35,000  Level Minneapolis Center
Thu 06:15:42 PM 44.5597 -83.4356 102° East 497 572 35,000  Level Minneapolis Center
Thu 06:16:43 PM 44.5319 -83.2447 101° East 498 573 35,000 -49 Level Minneapolis Center
Thu 06:17:44 PM 44.5072 -83.0547 100° East 498 573 34,900  Descending Minneapolis Center
Thu 06:18:46 PM 44.4792 -82.8664 102° East 497 572 35,000 49 Climbing Minneapolis Center
Thu 06:19:47 PM 44.4506 -82.6639 101° East 496 571 35,000  Level Minneapolis Center
Thu 06:21:37 PM 44.3833 -82.3000 104° East 500 575 35,000  Level Toronto Center
Thu 06:22:37 PM 44.3500 -82.1000 103° East 490 564 35,000  Level Toronto Center
Thu 06:23:37 PM 44.3333 -81.9167 97° East 490 564 35,000  Level Toronto Center
Thu 06:24:37 PM 44.3000 -81.7333 104° East 490 564 35,000  Level Toronto Center
Thu 06:25:37 PM 44.2667 -81.5500 104° East 490 564 35,000  Level Toronto Center
Thu 06:26:37 PM 44.2333 -81.3500 103° East 490 564 35,000  Level Toronto Center
Thu 06:27:37 PM 44.2000 -81.1667 104° East 490 564 35,000  Level Toronto Center
Thu 06:28:37 PM 44.1667 -80.9833 104° East 490 564 35,000  Level Toronto Center
Thu 06:29:37 PM 44.1500 -80.8167 98° East 490 564 35,000  Level Toronto Center
Thu 06:30:37 PM 44.1167 -80.6000 102° East 490 564 35,000  Level Toronto Center
Thu 06:31:37 PM 44.0833 -80.4167 104° East 500 575 35,000  Level Toronto Center
Thu 06:32:37 PM 44.0500 -80.2333 104° East 490 564 35,000  Level Toronto Center
Thu 06:33:37 PM 44.0167 -80.0500 104° East 490 564 35,000  Level Toronto Center
Thu 06:34:37 PM 43.9833 -79.8667 104° East 500 575 35,000  Level Toronto Center
Thu 06:35:37 PM 43.9500 -79.6833 104° East 500 575 35,000  Level Toronto Center
Thu 06:36:37 PM 43.9167 -79.5000 104° East 500 575 35,000  Level Toronto Center
Thu 06:37:37 PM 43.8833 -79.3167 104° East 500 575 35,000  Level Toronto Center
Thu 06:38:37 PM 43.8500 -79.1167 103° East 490 564 35,000  Level Toronto Center
Thu 06:39:37 PM 43.8333 -78.9333 97° East 490 564 35,000  Level Toronto Center
Thu 06:40:37 PM 43.8000 -78.7500 104° East 490 564 35,000  Level Toronto Center
Thu 06:41:37 PM 43.7667 -78.5667 104° East 500 575 35,000  Level Toronto Center
Thu 06:42:37 PM 43.7167 -78.3833 111° Southeast 490 564 35,000  Level Toronto Center
Thu 06:43:37 PM 43.6833 -78.2000 104° East 490 564 35,000 -400 Level Toronto Center
Thu 06:44:37 PM 43.6500 -78.0167 104° East 500 575 34,200 -850 Descending Toronto Center
Thu 06:45:37 PM 43.6167 -77.8333 104° East 490 564 33,300 -947 Descending Toronto Center
Thu 06:46:31 PM 43.5914 -77.6942 104° East 488 562 32,400 -1,000 Descending Cleveland Center
Thu 06:47:31 PM 43.5781 -77.5056 96° East 488 562 31,400 -994 Descending Cleveland Center
Thu 06:49:08 PM 43.5581 -77.2000 95° East 492 566 29,800 -917 Descending Boston Center
Thu 06:50:08 PM 43.5389 -77.0064 98° East 503 579 29,000 -400 Descending Boston Center
Thu 06:51:08 PM 43.5128 -76.8183 101° East 503 579 29,000  Level Boston Center
Thu 06:52:08 PM 43.4944 -76.6450 98° East 508 585 29,000  Level Boston Center
Thu 06:53:08 PM 43.4681 -76.4514 101° East 508 585 29,000  Level Boston Center
Thu 06:54:08 PM 43.4431 -76.2639 100° East 508 585 29,000  Level Boston Center
Thu 06:55:08 PM 43.4203 -76.0708 99° East 508 585 29,000  Level Boston Center
Thu 06:56:08 PM 43.3969 -75.8778 99° East 508 585 29,000  Level Boston Center
Thu 06:57:08 PM 43.3733 -75.6908 100° East 508 585 29,000 -227 Level Boston Center
Thu 06:58:20 PM 43.3494 -75.4983 100° East 508 585 28,500 -1,364 Descending Boston Center
Thu 06:59:20 PM 43.3161 -75.2567 101° East 503 579 26,000 -2,750 Descending Boston Center
Thu 07:00:20 PM 43.2869 -75.0756 102° East 501 577 23,000 -2,800 Descending Boston Center
Thu 07:01:20 PM 43.2278 -74.9250 118° Southeast 461 531 20,400 -2,550 Descending Boston Center
Thu 07:02:20 PM 43.1683 -74.7831 120° Southeast 442 509 17,900 -2,350 Descending Boston Center
Thu 07:03:20 PM 43.1167 -74.6586 120° Southeast 423 487 15,700 -2,250 Descending Boston Center
Thu 07:04:20 PM 43.0547 -74.5172 121° Southeast 402 463 13,400 -1,400 Descending Boston Center
Thu 07:05:20 PM 43.0047 -74.3992 120° Southeast 397 457 12,900 -636 Descending Boston Center
Thu 07:06:32 PM 42.9653 -74.2531 110° East 371 427 12,000 -1,045 Descending Boston Center
Thu 07:07:32 PM 42.9528 -74.1167 97° East 340 391 10,600 -1,900 Descending Boston Center
Thu 07:08:32 PM 42.9403 -73.9831 97° East 328 377 8,200 -1,800 Descending Boston Center
Thu 07:09:32 PM 42.9311 -73.8833 97° East 307 353 7,000 -1,400 Descending Boston Center
Thu 07:10:32 PM 42.9050 -73.7978 113° Southeast 263 303 5,400 -2,150 Descending Boston Center
Thu 07:11:32 PM 42.8531 -73.7939 177° South 186 214 2,700 -2,700 Descending Boston Center

Login

Don't have an account? Register now (free) for customized features, flight alerts, and more!